sensor_id;sensor_type;location;lat;lon;timestamp;pressure;altitude;pressure_sealevel;temperature;humidity
66547;BME280;53400;50.364;14.874;2022-08-01T00:01:48;98467.63;;;20.15;71.85
66547;BME280;53400;50.364;14.874;2022-08-01T00:04:14;98457.94;;;20.01;71.05
66547;BME280;53400;50.364;14.874;2022-08-01T00:06:40;98460.06;;;19.81;73.26
66547;BME280;53400;50.364;14.874;2022-08-01T00:09:05;98456.97;;;19.97;72.34
66547;BME280;53400;50.364;14.874;2022-08-01T00:11:31;98456.94;;;20.19;70.82
66547;BME280;53400;50.364;14.874;2022-08-01T00:13:57;98448.19;;;20.00;73.25
66547;BME280;53400;50.364;14.874;2022-08-01T00:16:24;98453.25;;;19.92;72.80
66547;BME280;53400;50.364;14.874;2022-08-01T00:18:50;98447.63;;;19.89;73.08
66547;BME280;53400;50.364;14.874;2022-08-01T00:21:17;98461.16;;;19.80;73.36
66547;BME280;53400;50.364;14.874;2022-08-01T00:23:43;98457.91;;;20.23;71.26
66547;BME280;53400;50.364;14.874;2022-08-01T00:26:10;98448.66;;;19.57;74.08
66547;BME280;53400;50.364;14.874;2022-08-01T00:28:36;98451.50;;;19.52;73.71
66547;BME280;53400;50.364;14.874;2022-08-01T00:31:02;98442.75;;;19.18;73.51
66547;BME280;53400;50.364;14.874;2022-08-01T00:33:29;98443.66;;;19.50;72.42
66547;BME280;53400;50.364;14.874;2022-08-01T00:35:55;98450.16;;;19.63;70.99
66547;BME280;53400;50.364;14.874;2022-08-01T00:38:21;98450.41;;;19.16;73.29
66547;BME280;53400;50.364;14.874;2022-08-01T00:40:47;98452.22;;;19.21;70.86
66547;BME280;53400;50.364;14.874;2022-08-01T00:43:13;98443.75;;;19.22;70.60
66547;BME280;53400;50.364;14.874;2022-08-01T00:45:39;98445.75;;;19.31;70.92
66547;BME280;53400;50.364;14.874;2022-08-01T00:48:05;98448.59;;;19.48;69.40
66547;BME280;53400;50.364;14.874;2022-08-01T00:50:32;98443.66;;;19.50;68.54
66547;BME280;53400;50.364;14.874;2022-08-01T00:52:59;98437.66;;;19.62;67.17
66547;BME280;53400;50.364;14.874;2022-08-01T00:55:26;98442.59;;;19.60;68.90
66547;BME280;53400;50.364;14.874;2022-08-01T00:57:52;98432.31;;;19.48;68.96
66547;BME280;53400;50.364;14.874;2022-08-01T01:00:18;98432.56;;;19.60;68.57
66547;BME280;53400;50.364;14.874;2022-08-01T01:02:44;98430.41;;;19.48;68.83
66547;BME280;53400;50.364;14.874;2022-08-01T01:05:10;98427.34;;;19.50;67.66
66547;BME280;53400;50.364;14.874;2022-08-01T01:07:42;98429.38;;;19.44;68.16
66547;BME280;53400;50.364;14.874;2022-08-01T01:10:17;98430.50;;;19.43;68.23
66547;BME280;53400;50.364;14.874;2022-08-01T01:12:51;98426.06;;;19.47;67.84
66547;BME280;53400;50.364;14.874;2022-08-01T01:15:23;98418.38;;;19.63;66.35
66547;BME280;53400;50.364;14.874;2022-08-01T01:17:56;98421.91;;;19.50;67.77
66547;BME280;53400;50.364;14.874;2022-08-01T01:20:27;98423.06;;;19.71;66.95
66547;BME280;53400;50.364;14.874;2022-08-01T01:25:54;98426.28;;;19.74;66.41
66547;BME280;53400;50.364;14.874;2022-08-01T01:28:33;98430.66;;;19.83;66.03
66547;BME280;53400;50.364;14.874;2022-08-01T01:31:02;98420.47;;;19.89;66.17
66547;BME280;53400;50.364;14.874;2022-08-01T01:33:34;98416.63;;;19.45;67.82
66547;BME280;53400;50.364;14.874;2022-08-01T01:36:05;98424.19;;;19.34;68.51
66547;BME280;53400;50.364;14.874;2022-08-01T01:38:35;98423.16;;;19.21;69.82
66547;BME280;53400;50.364;14.874;2022-08-01T01:41:02;98424.72;;;19.59;68.40
66547;BME280;53400;50.364;14.874;2022-08-01T01:43:29;98427.88;;;19.52;68.60
66547;BME280;53400;50.364;14.874;2022-08-01T01:45:57;98423.34;;;19.92;65.58
66547;BME280;53400;50.364;14.874;2022-08-01T01:48:24;98415.38;;;19.96;66.50
66547;BME280;53400;50.364;14.874;2022-08-01T01:50:52;98419.72;;;19.97;68.25
66547;BME280;53400;50.364;14.874;2022-08-01T01:53:21;98410.59;;;19.70;68.09
66547;BME280;53400;50.364;14.874;2022-08-01T01:55:52;98406.94;;;19.53;69.87
66547;BME280;53400;50.364;14.874;2022-08-01T01:58:19;98407.09;;;19.56;68.36
66547;BME280;53400;50.364;14.874;2022-08-01T02:00:47;98409.81;;;19.70;68.60
66547;BME280;53400;50.364;14.874;2022-08-01T02:03:13;98406.56;;;19.45;69.88
66547;BME280;53400;50.364;14.874;2022-08-01T02:05:42;98403.97;;;19.04;73.81
66547;BME280;53400;50.364;14.874;2022-08-01T02:08:09;98404.06;;;19.13;74.39
66547;BME280;53400;50.364;14.874;2022-08-01T02:10:37;98404.06;;;19.13;73.51
66547;BME280;53400;50.364;14.874;2022-08-01T02:13:04;98402.66;;;19.15;74.06
66547;BME280;53400;50.364;14.874;2022-08-01T02:15:34;98399.31;;;19.18;72.19
66547;BME280;53400;50.364;14.874;2022-08-01T02:18:05;98397.38;;;18.96;75.35
66547;BME280;53400;50.364;14.874;2022-08-01T02:20:34;98395.50;;;18.55;78.47
66547;BME280;53400;50.364;14.874;2022-08-01T02:23:07;98400.03;;;18.60;78.53
66547;BME280;53400;50.364;14.874;2022-08-01T02:25:38;98399.69;;;18.62;78.58
66547;BME280;53400;50.364;14.874;2022-08-01T02:28:07;98401.66;;;18.75;76.47
66547;BME280;53400;50.364;14.874;2022-08-01T02:30:36;98404.13;;;18.99;74.25
66547;BME280;53400;50.364;14.874;2022-08-01T02:33:05;98394.31;;;19.12;75.10
66547;BME280;53400;50.364;14.874;2022-08-01T02:35:35;98388.72;;;19.08;72.47
66547;BME280;53400;50.364;14.874;2022-08-01T02:38:06;98395.81;;;19.18;71.38
66547;BME280;53400;50.364;14.874;2022-08-01T02:40:38;98398.97;;;19.56;69.54
66547;BME280;53400;50.364;14.874;2022-08-01T02:43:05;98392.66;;;19.24;72.18
66547;BME280;53400;50.364;14.874;2022-08-01T02:45:33;98398.03;;;19.16;73.44
66547;BME280;53400;50.364;14.874;2022-08-01T02:48:06;98400.03;;;19.10;73.63
66547;BME280;53400;50.364;14.874;2022-08-01T02:50:36;98400.66;;;19.07;73.74
66547;BME280;53400;50.364;14.874;2022-08-01T02:53:02;98404.25;;;19.16;72.27
66547;BME280;53400;50.364;14.874;2022-08-01T02:55:32;98407.56;;;18.77;73.16
66547;BME280;53400;50.364;14.874;2022-08-01T02:57:59;98404.94;;;18.86;73.71
66547;BME280;53400;50.364;14.874;2022-08-01T03:00:26;98406.25;;;18.74;73.33
66547;BME280;53400;50.364;14.874;2022-08-01T03:02:53;98399.50;;;18.72;73.08
66547;BME280;53400;50.364;14.874;2022-08-01T03:05:22;98414.75;;;18.68;76.07
66547;BME280;53400;50.364;14.874;2022-08-01T03:07:51;98403.19;;;18.90;72.61
66547;BME280;53400;50.364;14.874;2022-08-01T03:10:17;98423.31;;;18.61;75.40
66547;BME280;53400;50.364;14.874;2022-08-01T03:12:45;98421.06;;;19.05;74.18
66547;BME280;53400;50.364;14.874;2022-08-01T03:15:13;98433.19;;;18.85;74.27
66547;BME280;53400;50.364;14.874;2022-08-01T03:17:41;98431.84;;;18.96;69.92
66547;BME280;53400;50.364;14.874;2022-08-01T03:20:10;98432.56;;;18.74;72.11
66547;BME280;53400;50.364;14.874;2022-08-01T03:22:38;98428.41;;;19.04;72.55
66547;BME280;53400;50.364;14.874;2022-08-01T03:25:05;98429.94;;;18.69;71.98
66547;BME280;53400;50.364;14.874;2022-08-01T03:27:32;98423.72;;;18.41;76.55
66547;BME280;53400;50.364;14.874;2022-08-01T03:30:02;98429.59;;;18.01;79.23
66547;BME280;53400;50.364;14.874;2022-08-01T03:32:29;98426.13;;;18.42;75.42
66547;BME280;53400;50.364;14.874;2022-08-01T03:34:56;98429.44;;;18.53;77.47
66547;BME280;53400;50.364;14.874;2022-08-01T03:37:24;98424.31;;;18.65;75.98
66547;BME280;53400;50.364;14.874;2022-08-01T03:39:55;98421.72;;;18.46;75.45
66547;BME280;53400;50.364;14.874;2022-08-01T03:42:28;98424.69;;;18.03;78.50
66547;BME280;53400;50.364;14.874;2022-08-01T03:45:02;98431.63;;;18.09;78.41
66547;BME280;53400;50.364;14.874;2022-08-01T03:47:30;98430.22;;;18.12;78.08
66547;BME280;53400;50.364;14.874;2022-08-01T03:49:57;98433.22;;;18.10;77.01
66547;BME280;53400;50.364;14.874;2022-08-01T03:52:24;98434.53;;;18.13;78.17
66547;BME280;53400;50.364;14.874;2022-08-01T03:54:54;98433.84;;;18.21;77.20
66547;BME280;53400;50.364;14.874;2022-08-01T03:57:23;98435.19;;;18.51;76.45
66547;BME280;53400;50.364;14.874;2022-08-01T03:59:51;98431.06;;;18.54;74.70
66547;BME280;53400;50.364;14.874;2022-08-01T04:02:19;98429.34;;;18.30;73.66
66547;BME280;53400;50.364;14.874;2022-08-01T04:04:45;98439.78;;;18.23;76.74
66547;BME280;53400;50.364;14.874;2022-08-01T04:07:25;98430.34;;;18.34;75.11
66547;BME280;53400;50.364;14.874;2022-08-01T04:09:52;98427.09;;;19.01;69.50
66547;BME280;53400;50.364;14.874;2022-08-01T04:12:18;98430.22;;;19.09;68.54
66547;BME280;53400;50.364;14.874;2022-08-01T04:14:44;98428.56;;;19.21;69.04
66547;BME280;53400;50.364;14.874;2022-08-01T04:17:10;98430.84;;;19.06;70.29
66547;BME280;53400;50.364;14.874;2022-08-01T04:19:38;98432.50;;;19.15;72.20
66547;BME280;53400;50.364;14.874;2022-08-01T04:22:04;98436.41;;;19.23;70.88
66547;BME280;53400;50.364;14.874;2022-08-01T04:24:31;98439.50;;;19.66;68.99
66547;BME280;53400;50.364;14.874;2022-08-01T04:26:58;98442.94;;;19.81;67.48
66547;BME280;53400;50.364;14.874;2022-08-01T04:29:26;98444.66;;;19.99;67.31
66547;BME280;53400;50.364;14.874;2022-08-01T04:31:54;98447.28;;;19.82;67.92
66547;BME280;53400;50.364;14.874;2022-08-01T04:34:23;98442.25;;;19.98;66.57
66547;BME280;53400;50.364;14.874;2022-08-01T04:36:54;98444.69;;;19.77;69.40
66547;BME280;53400;50.364;14.874;2022-08-01T04:39:23;98437.16;;;19.74;68.27
66547;BME280;53400;50.364;14.874;2022-08-01T04:41:53;98434.94;;;19.76;67.94
66547;BME280;53400;50.364;14.874;2022-08-01T04:44:22;98441.84;;;19.82;68.39
66547;BME280;53400;50.364;14.874;2022-08-01T04:46:48;98436.56;;;19.40;71.20
66547;BME280;53400;50.364;14.874;2022-08-01T04:49:15;98444.00;;;19.71;69.81
66547;BME280;53400;50.364;14.874;2022-08-01T04:51:53;98440.56;;;19.79;70.56
66547;BME280;53400;50.364;14.874;2022-08-01T04:54:30;98439.00;;;19.51;72.22
66547;BME280;53400;50.364;14.874;2022-08-01T04:56:59;98436.44;;;19.45;72.69
66547;BME280;53400;50.364;14.874;2022-08-01T04:59:25;98441.78;;;19.14;74.32
66547;BME280;53400;50.364;14.874;2022-08-01T05:02:07;98449.03;;;19.05;75.40
66547;BME280;53400;50.364;14.874;2022-08-01T05:04:34;98438.47;;;19.40;72.79
66547;BME280;53400;50.364;14.874;2022-08-01T05:07:01;98439.69;;;19.70;72.55
66547;BME280;53400;50.364;14.874;2022-08-01T05:09:28;98441.50;;;19.02;76.45
66547;BME280;53400;50.364;14.874;2022-08-01T05:11:53;98447.94;;;19.29;76.41
66547;BME280;53400;50.364;14.874;2022-08-01T05:14:19;98450.63;;;19.42;73.91
66547;BME280;53400;50.364;14.874;2022-08-01T05:16:45;98447.56;;;19.58;74.19
66547;BME280;53400;50.364;14.874;2022-08-01T05:19:11;98438.47;;;19.62;74.43
66547;BME280;53400;50.364;14.874;2022-08-01T05:21:37;98440.44;;;19.84;73.42
66547;BME280;53400;50.364;14.874;2022-08-01T05:24:05;98445.72;;;19.89;73.25
66547;BME280;53400;50.364;14.874;2022-08-01T05:26:31;98435.38;;;19.55;76.55
66547;BME280;53400;50.364;14.874;2022-08-01T05:28:56;98448.75;;;19.88;73.31
66547;BME280;53400;50.364;14.874;2022-08-01T05:31:22;98448.38;;;20.03;72.80
66547;BME280;53400;50.364;14.874;2022-08-01T05:33:48;98449.69;;;20.14;71.31
66547;BME280;53400;50.364;14.874;2022-08-01T05:36:14;98452.03;;;20.30;71.52
66547;BME280;53400;50.364;14.874;2022-08-01T05:38:40;98444.72;;;20.39;70.29
66547;BME280;53400;50.364;14.874;2022-08-01T05:41:07;98442.97;;;20.43;70.07
66547;BME280;53400;50.364;14.874;2022-08-01T05:43:33;98444.31;;;20.54;70.00
66547;BME280;53400;50.364;14.874;2022-08-01T05:45:59;98439.28;;;20.39;71.43
66547;BME280;53400;50.364;14.874;2022-08-01T05:48:26;98444.25;;;20.46;71.68
66547;BME280;53400;50.364;14.874;2022-08-01T05:50:53;98443.84;;;20.52;71.54
66547;BME280;53400;50.364;14.874;2022-08-01T05:53:19;98442.06;;;20.56;70.25
66547;BME280;53400;50.364;14.874;2022-08-01T05:55:45;98436.19;;;20.72;68.46
66547;BME280;53400;50.364;14.874;2022-08-01T05:58:12;98443.25;;;20.73;70.27
66547;BME280;53400;50.364;14.874;2022-08-01T06:00:38;98452.88;;;20.88;69.10
66547;BME280;53400;50.364;14.874;2022-08-01T06:03:04;98459.97;;;20.97;69.33
66547;BME280;53400;50.364;14.874;2022-08-01T06:05:30;98451.00;;;21.05;68.52
66547;BME280;53400;50.364;14.874;2022-08-01T06:07:56;98456.38;;;20.71;70.24
66547;BME280;53400;50.364;14.874;2022-08-01T06:10:23;98463.13;;;20.82;70.37
66547;BME280;53400;50.364;14.874;2022-08-01T06:12:49;98461.97;;;20.74;70.50
66547;BME280;53400;50.364;14.874;2022-08-01T06:15:17;98454.63;;;20.75;70.58
66547;BME280;53400;50.364;14.874;2022-08-01T06:17:43;98455.97;;;20.95;69.36
66547;BME280;53400;50.364;14.874;2022-08-01T06:20:09;98453.91;;;21.09;69.56
66547;BME280;53400;50.364;14.874;2022-08-01T06:22:36;98450.75;;;21.42;68.91
66547;BME280;53400;50.364;14.874;2022-08-01T06:25:02;98448.19;;;21.45;68.73
66547;BME280;53400;50.364;14.874;2022-08-01T06:27:28;98453.41;;;21.94;67.82
66547;BME280;53400;50.364;14.874;2022-08-01T06:29:54;98467.09;;;22.50;62.34
66547;BME280;53400;50.364;14.874;2022-08-01T06:32:22;98464.22;;;23.14;58.54
66547;BME280;53400;50.364;14.874;2022-08-01T06:34:48;98464.63;;;23.46;59.41
66547;BME280;53400;50.364;14.874;2022-08-01T06:37:14;98469.41;;;23.49;58.17
66547;BME280;53400;50.364;14.874;2022-08-01T06:39:41;98465.41;;;23.67;57.71
66547;BME280;53400;50.364;14.874;2022-08-01T06:42:07;98464.63;;;23.67;56.35
66547;BME280;53400;50.364;14.874;2022-08-01T06:44:33;98455.31;;;24.01;55.80
66547;BME280;53400;50.364;14.874;2022-08-01T06:46:58;98457.63;;;24.11;55.62
66547;BME280;53400;50.364;14.874;2022-08-01T06:49:26;98455.63;;;24.33;55.04
66547;BME280;53400;50.364;14.874;2022-08-01T06:51:52;98459.97;;;24.46;54.27
66547;BME280;53400;50.364;14.874;2022-08-01T06:54:18;98460.00;;;24.58;53.77
66547;BME280;53400;50.364;14.874;2022-08-01T06:56:44;98473.47;;;24.76;52.81
66547;BME280;53400;50.364;14.874;2022-08-01T06:59:10;98476.69;;;24.78;52.33
66547;BME280;53400;50.364;14.874;2022-08-01T07:01:35;98463.56;;;24.95;52.30
66547;BME280;53400;50.364;14.874;2022-08-01T07:04:01;98472.78;;;25.15;51.37
66547;BME280;53400;50.364;14.874;2022-08-01T07:06:29;98466.41;;;24.62;53.19
66547;BME280;53400;50.364;14.874;2022-08-01T07:08:55;98471.81;;;24.25;54.27
66547;BME280;53400;50.364;14.874;2022-08-01T07:11:23;98470.78;;;23.97;54.81
66547;BME280;53400;50.364;14.874;2022-08-01T07:13:49;98465.13;;;24.02;55.52
66547;BME280;53400;50.364;14.874;2022-08-01T07:16:15;98469.94;;;23.21;57.76
66547;BME280;53400;50.364;14.874;2022-08-01T07:18:41;98472.03;;;23.87;55.88
66547;BME280;53400;50.364;14.874;2022-08-01T07:21:07;98473.97;;;24.32;54.70
66547;BME280;53400;50.364;14.874;2022-08-01T07:23:35;98472.44;;;24.80;54.01
66547;BME280;53400;50.364;14.874;2022-08-01T07:26:00;98470.72;;;24.76;52.83
66547;BME280;53400;50.364;14.874;2022-08-01T07:28:28;98470.50;;;24.81;52.37
66547;BME280;53400;50.364;14.874;2022-08-01T07:30:54;98478.94;;;24.88;52.74
66547;BME280;53400;50.364;14.874;2022-08-01T07:33:20;98478.38;;;25.19;52.51
66547;BME280;53400;50.364;14.874;2022-08-01T07:35:46;98476.56;;;25.23;51.46
66547;BME280;53400;50.364;14.874;2022-08-01T07:38:11;98473.91;;;25.67;50.91
66547;BME280;53400;50.364;14.874;2022-08-01T07:40:38;98480.06;;;26.04;50.03
66547;BME280;53400;50.364;14.874;2022-08-01T07:43:04;98476.59;;;26.07;49.36
66547;BME280;53400;50.364;14.874;2022-08-01T07:45:30;98473.84;;;26.36;47.98
66547;BME280;53400;50.364;14.874;2022-08-01T07:47:56;98486.25;;;26.61;46.37
66547;BME280;53400;50.364;14.874;2022-08-01T07:50:22;98486.63;;;26.75;46.80
66547;BME280;53400;50.364;14.874;2022-08-01T07:52:48;98492.72;;;27.00;45.50
66547;BME280;53400;50.364;14.874;2022-08-01T07:55:13;98490.31;;;27.15;44.87
66547;BME280;53400;50.364;14.874;2022-08-01T07:57:41;98491.13;;;26.84;44.91
66547;BME280;53400;50.364;14.874;2022-08-01T08:00:07;98478.91;;;26.49;45.66
66547;BME280;53400;50.364;14.874;2022-08-01T08:02:34;98493.09;;;26.51;46.76
66547;BME280;53400;50.364;14.874;2022-08-01T08:05:00;98492.34;;;26.86;45.05
66547;BME280;53400;50.364;14.874;2022-08-01T08:07:26;98496.91;;;26.79;44.57
66547;BME280;53400;50.364;14.874;2022-08-01T08:09:52;98497.50;;;26.88;45.98
66547;BME280;53400;50.364;14.874;2022-08-01T08:12:18;98485.72;;;26.71;45.36
66547;BME280;53400;50.364;14.874;2022-08-01T08:14:45;98494.50;;;26.77;44.74
66547;BME280;53400;50.364;14.874;2022-08-01T08:17:11;98491.00;;;27.12;44.71
66547;BME280;53400;50.364;14.874;2022-08-01T08:19:37;98491.00;;;27.12;43.56
66547;BME280;53400;50.364;14.874;2022-08-01T08:22:05;98492.81;;;26.88;44.62
66547;BME280;53400;50.364;14.874;2022-08-01T08:24:31;98494.03;;;26.43;45.71
66547;BME280;53400;50.364;14.874;2022-08-01T08:26:58;98489.63;;;26.11;48.49
66547;BME280;53400;50.364;14.874;2022-08-01T08:29:25;98493.94;;;25.96;49.36
66547;BME280;53400;50.364;14.874;2022-08-01T08:31:53;98497.53;;;25.84;49.91
66547;BME280;53400;50.364;14.874;2022-08-01T08:34:20;98496.41;;;25.73;48.45
66547;BME280;53400;50.364;14.874;2022-08-01T08:36:46;98488.66;;;26.03;49.31
66547;BME280;53400;50.364;14.874;2022-08-01T08:39:12;98494.91;;;25.88;49.60
66547;BME280;53400;50.364;14.874;2022-08-01T08:41:38;98492.59;;;26.18;48.30
66547;BME280;53400;50.364;14.874;2022-08-01T08:44:04;98496.09;;;25.62;50.68
66547;BME280;53400;50.364;14.874;2022-08-01T08:46:31;98495.88;;;25.55;52.25
66547;BME280;53400;50.364;14.874;2022-08-01T08:49:03;98502.06;;;25.52;53.69
66547;BME280;53400;50.364;14.874;2022-08-01T08:51:30;98502.25;;;25.59;52.50
66547;BME280;53400;50.364;14.874;2022-08-01T08:53:58;98499.97;;;26.01;51.95
66547;BME280;53400;50.364;14.874;2022-08-01T08:56:25;98497.91;;;25.98;53.66
66547;BME280;53400;50.364;14.874;2022-08-01T08:58:52;98506.25;;;26.46;50.78
66547;BME280;53400;50.364;14.874;2022-08-01T09:01:18;98504.97;;;26.12;51.78
66547;BME280;53400;50.364;14.874;2022-08-01T09:03:44;98506.31;;;25.90;51.50
66547;BME280;53400;50.364;14.874;2022-08-01T09:06:11;98502.16;;;26.40;50.89
66547;BME280;53400;50.364;14.874;2022-08-01T09:08:37;98501.13;;;26.00;50.96
66547;BME280;53400;50.364;14.874;2022-08-01T09:11:04;98509.59;;;25.55;53.46
66547;BME280;53400;50.364;14.874;2022-08-01T09:13:29;98502.59;;;25.70;50.79
66547;BME280;53400;50.364;14.874;2022-08-01T09:15:56;98504.13;;;26.39;49.87
66547;BME280;53400;50.364;14.874;2022-08-01T09:18:30;98507.97;;;26.82;50.63
66547;BME280;53400;50.364;14.874;2022-08-01T09:21:16;98513.72;;;27.09;48.02
66547;BME280;53400;50.364;14.874;2022-08-01T09:23:45;98514.34;;;27.18;45.78
66547;BME280;53400;50.364;14.874;2022-08-01T09:26:12;98515.75;;;27.12;47.71
66547;BME280;53400;50.364;14.874;2022-08-01T09:28:39;98510.81;;;26.86;48.06
66547;BME280;53400;50.364;14.874;2022-08-01T09:31:07;98505.03;;;25.99;49.75
66547;BME280;53400;50.364;14.874;2022-08-01T09:33:51;98513.25;;;26.43;46.99
66547;BME280;53400;50.364;14.874;2022-08-01T09:36:19;98513.50;;;26.38;46.15
66547;BME280;53400;50.364;14.874;2022-08-01T09:38:46;98519.88;;;26.26;46.80
66547;BME280;53400;50.364;14.874;2022-08-01T09:41:12;98514.75;;;25.97;48.75
66547;BME280;53400;50.364;14.874;2022-08-01T09:43:38;98518.53;;;25.80;50.70
66547;BME280;53400;50.364;14.874;2022-08-01T09:46:05;98523.25;;;26.07;48.71
66547;BME280;53400;50.364;14.874;2022-08-01T09:48:34;98518.31;;;26.13;50.08
66547;BME280;53400;50.364;14.874;2022-08-01T09:51:00;98515.97;;;26.27;48.88
66547;BME280;53400;50.364;14.874;2022-08-01T09:53:40;98523.59;;;26.34;49.19
66547;BME280;53400;50.364;14.874;2022-08-01T09:56:10;98525.81;;;26.44;49.98
66547;BME280;53400;50.364;14.874;2022-08-01T09:58:49;98518.22;;;26.09;48.66
66547;BME280;53400;50.364;14.874;2022-08-01T10:01:15;98527.16;;;26.06;49.16
66547;BME280;53400;50.364;14.874;2022-08-01T10:03:41;98509.59;;;25.95;48.82
66547;BME280;53400;50.364;14.874;2022-08-01T10:06:19;98526.22;;;25.74;49.62
66547;BME280;53400;50.364;14.874;2022-08-01T10:08:47;98519.25;;;25.77;49.16
66547;BME280;53400;50.364;14.874;2022-08-01T10:11:13;98518.84;;;25.62;51.24
66547;BME280;53400;50.364;14.874;2022-08-01T10:13:40;98526.91;;;25.18;51.82
66547;BME280;53400;50.364;14.874;2022-08-01T10:16:06;98517.88;;;25.06;52.26
66547;BME280;53400;50.364;14.874;2022-08-01T10:18:34;98524.34;;;24.64;53.38
66547;BME280;53400;50.364;14.874;2022-08-01T10:21:01;98523.19;;;24.53;54.35
66547;BME280;53400;50.364;14.874;2022-08-01T10:23:33;98521.03;;;24.71;53.08
66547;BME280;53400;50.364;14.874;2022-08-01T10:26:00;98528.34;;;24.91;52.56
66547;BME280;53400;50.364;14.874;2022-08-01T10:28:30;98538.06;;;25.01;52.09
66547;BME280;53400;50.364;14.874;2022-08-01T10:30:56;98535.47;;;25.05;51.94
66547;BME280;53400;50.364;14.874;2022-08-01T10:33:23;98536.69;;;25.44;51.65
66547;BME280;53400;50.364;14.874;2022-08-01T10:35:49;98539.66;;;25.51;51.72
66547;BME280;53400;50.364;14.874;2022-08-01T10:38:16;98536.44;;;25.49;52.03
66547;BME280;53400;50.364;14.874;2022-08-01T10:40:43;98536.69;;;25.56;52.36
66547;BME280;53400;50.364;14.874;2022-08-01T10:43:11;98534.88;;;25.48;53.39
66547;BME280;53400;50.364;14.874;2022-08-01T10:45:37;98536.84;;;25.88;51.85
66547;BME280;53400;50.364;14.874;2022-08-01T10:48:10;98535.66;;;25.49;52.90
66547;BME280;53400;50.364;14.874;2022-08-01T10:50:41;98532.56;;;25.62;52.77
66547;BME280;53400;50.364;14.874;2022-08-01T10:53:10;98531.53;;;25.95;52.40
66547;BME280;53400;50.364;14.874;2022-08-01T10:55:47;98540.72;;;26.15;51.06
66547;BME280;53400;50.364;14.874;2022-08-01T10:58:20;98530.47;;;26.12;50.79
66547;BME280;53400;50.364;14.874;2022-08-01T11:00:45;98536.53;;;26.34;51.74
66547;BME280;53400;50.364;14.874;2022-08-01T11:03:11;98539.78;;;26.51;50.37
66547;BME280;53400;50.364;14.874;2022-08-01T11:05:38;98537.69;;;26.48;50.35
66547;BME280;53400;50.364;14.874;2022-08-01T11:08:10;98538.56;;;26.37;50.90
66547;BME280;53400;50.364;14.874;2022-08-01T11:10:46;98537.63;;;26.17;52.27
66547;BME280;53400;50.364;14.874;2022-08-01T11:13:14;98543.13;;;26.17;51.03
66547;BME280;53400;50.364;14.874;2022-08-01T11:16:29;98547.25;;;26.11;50.87
66547;BME280;53400;50.364;14.874;2022-08-01T11:18:55;98541.84;;;26.26;50.23
66547;BME280;53400;50.364;14.874;2022-08-01T11:21:21;98539.94;;;26.15;50.68
66547;BME280;53400;50.364;14.874;2022-08-01T11:23:52;98543.88;;;26.01;51.22
66547;BME280;53400;50.364;14.874;2022-08-01T11:26:20;98540.22;;;26.25;51.64
66547;BME280;53400;50.364;14.874;2022-08-01T11:29:10;98540.78;;;26.47;51.14
66547;BME280;53400;50.364;14.874;2022-08-01T11:31:38;98540.44;;;26.48;50.06
66547;BME280;53400;50.364;14.874;2022-08-01T11:34:04;98538.09;;;26.19;50.17
66547;BME280;53400;50.364;14.874;2022-08-01T11:36:30;98542.84;;;26.50;50.21
66547;BME280;53400;50.364;14.874;2022-08-01T11:39:14;98535.53;;;26.54;49.28
66547;BME280;53400;50.364;14.874;2022-08-01T11:41:41;98540.50;;;26.20;50.77
66547;BME280;53400;50.364;14.874;2022-08-01T11:44:09;98529.59;;;26.52;50.78
66547;BME280;53400;50.364;14.874;2022-08-01T11:46:52;98531.31;;;26.44;51.87
66547;BME280;53400;50.364;14.874;2022-08-01T11:49:27;98540.16;;;26.82;49.09
66547;BME280;53400;50.364;14.874;2022-08-01T11:52:01;98540.75;;;26.91;49.82
66547;BME280;53400;50.364;14.874;2022-08-01T11:54:28;98532.22;;;26.96;48.77
66547;BME280;53400;50.364;14.874;2022-08-01T11:56:58;98529.69;;;26.87;47.46
66547;BME280;53400;50.364;14.874;2022-08-01T11:59:25;98531.81;;;26.94;47.88
66547;BME280;53400;50.364;14.874;2022-08-01T12:01:52;98532.97;;;26.77;49.73
66547;BME280;53400;50.364;14.874;2022-08-01T12:04:19;98542.69;;;26.74;48.26
66547;BME280;53400;50.364;14.874;2022-08-01T12:06:45;98536.59;;;26.65;48.10
66547;BME280;53400;50.364;14.874;2022-08-01T12:09:18;98540.59;;;26.24;49.13
66547;BME280;53400;50.364;14.874;2022-08-01T12:11:44;98539.59;;;25.88;51.15
66547;BME280;53400;50.364;14.874;2022-08-01T12:14:15;98551.50;;;25.68;52.88
66547;BME280;53400;50.364;14.874;2022-08-01T12:16:48;98560.63;;;25.72;54.05
66547;BME280;53400;50.364;14.874;2022-08-01T12:19:21;98561.81;;;25.46;53.45
66547;BME280;53400;50.364;14.874;2022-08-01T12:22:07;98565.16;;;25.39;54.06
66547;BME280;53400;50.364;14.874;2022-08-01T12:24:34;98563.22;;;25.15;55.04
66547;BME280;53400;50.364;14.874;2022-08-01T12:27:00;98573.53;;;24.73;57.13
66547;BME280;53400;50.364;14.874;2022-08-01T12:29:37;98574.34;;;24.86;58.32
66547;BME280;53400;50.364;14.874;2022-08-01T12:32:04;98567.19;;;24.93;57.92
66547;BME280;53400;50.364;14.874;2022-08-01T12:34:32;98575.16;;;24.86;58.90
66547;BME280;53400;50.364;14.874;2022-08-01T12:37:00;98575.22;;;25.23;58.18
66547;BME280;53400;50.364;14.874;2022-08-01T12:39:34;98567.53;;;25.41;57.56
66547;BME280;53400;50.364;14.874;2022-08-01T12:42:00;98556.66;;;25.69;56.17
66547;BME280;53400;50.364;14.874;2022-08-01T12:44:28;98553.91;;;25.81;54.89
66547;BME280;53400;50.364;14.874;2022-08-01T12:46:55;98547.41;;;26.02;53.79
66547;BME280;53400;50.364;14.874;2022-08-01T12:49:22;98542.75;;;26.02;52.70
66547;BME280;53400;50.364;14.874;2022-08-01T12:51:49;98537.88;;;25.83;54.78
66547;BME280;53400;50.364;14.874;2022-08-01T12:54:16;98539.13;;;25.74;54.77
66547;BME280;53400;50.364;14.874;2022-08-01T12:56:41;98544.00;;;25.93;54.34
66547;BME280;53400;50.364;14.874;2022-08-01T12:59:20;98543.53;;;26.03;54.42